CheckWX is a tool to help pilots better visualize weather data.  It is not intended as a substitute for an official pre-flight weather briefing.

04:55:16 UTC

DAOB TAF
Bou Chekif Airport
Tiaret, Algeria
TAF DAOB 222300Z 2300/2324 VRB02KT 8000 SCT020 SCT023 PROB40 2300/2310 5000 -DZBR BKN015 PROB30 TEMPO 2302/2308 0800 FG BKN010 BECMG 2308/2311 06010KT

Mar-23@
00:00 UTC

Mar-23 @ 00:00 UTC

Mar-23@
08:00 UTC

Mar-23 @ 08:00 UTC

TAF DAOB 222300Z 2300/2324 VRB02KT 8000 SCT020 SCT023
Wind
  • Variable at 2 KTS
Cloud Levels
  • Scattered at 2,000' AGL
  • Scattered at 2,300' AGL

Mar-23@
00:00 UTC

Mar-23 @ 00:00 UTC

Mar-23@
10:00 UTC

Mar-23 @ 10:00 UTC

PROB40 2300/2310 5000 -DZBR BKN015

Probable - 40% Likelihood

Probable - 40% Likelihood during this time.

Conditions
Light Drizzle, Mist
Cloud Levels
  • Broken at 1,500' AGL

Mar-23@
02:00 UTC

Mar-23 @ 02:00 UTC

Mar-23@
08:00 UTC

Mar-23 @ 08:00 UTC

PROB30 TEMPO 2302/2308 0800 FG BKN010

Temporary - 30% Likelihood

Temporary - 30% Likelihood during this time.

Conditions
Fog
Cloud Levels
  • Broken at 1,000' AGL

Mar-23@
08:00 UTC

Mar-23 @ 08:00 UTC

Mar-24@
00:00 UTC

Mar-24 @ 00:00 UTC

BECMG 2308/2311 06010KT

Becoming

Becoming Conditions expected by Sat, Mar 23, 2019 @ 11:00 UTC

Wind
  • 060° at 10 KTS
Cloud Levels
  • Scattered at 2,000' AGL
  • Scattered at 2,300' AGL